createdAt,value
2022-12-01T00:03:31.888Z,4.39
2022-12-01T00:07:31.457Z,4.32
2022-12-01T00:11:31.063Z,4.27
2022-12-01T00:15:35.581Z,4.23
2022-12-01T00:19:34.800Z,4.22
2022-12-01T00:23:34.473Z,4.22
2022-12-01T00:27:34.034Z,4.20
2022-12-01T00:31:34.892Z,4.19
2022-12-01T00:35:34.025Z,4.19
2022-12-01T00:39:33.721Z,4.17
2022-12-01T00:43:33.026Z,4.15
2022-12-01T00:47:32.573Z,4.14
2022-12-01T00:51:31.549Z,4.15
2022-12-01T00:55:31.217Z,4.14
2022-12-01T00:59:30.306Z,4.14
2022-12-01T01:03:30.665Z,4.14
2022-12-01T01:07:31.214Z,4.14
2022-12-01T01:11:30.673Z,4.16
2022-12-01T01:15:29.613Z,4.16
2022-12-01T01:19:29.267Z,4.16
2022-12-01T01:23:31.492Z,4.16
2022-12-01T01:27:32.029Z,4.16
2022-12-01T01:31:33.295Z,4.17
2022-12-01T01:35:09.577Z,4.16
2022-12-01T01:39:08.955Z,4.16
2022-12-01T01:43:38.382Z,4.16
2022-12-01T01:47:40.868Z,4.17
2022-12-01T01:51:43.880Z,4.16
2022-12-01T01:55:44.127Z,4.16
2022-12-01T01:59:54.409Z,4.14
2022-12-01T02:03:54.854Z,4.14
2022-12-01T02:07:57.274Z,4.13
2022-12-01T02:12:41.273Z,4.14
2022-12-01T02:17:02.278Z,4.14
2022-12-01T02:21:19.549Z,4.13
2022-12-01T02:25:40.607Z,4.12
2022-12-01T02:30:15.508Z,4.12
2022-12-01T02:34:21.872Z,4.12
2022-12-01T02:38:54.946Z,4.13
2022-12-01T02:43:32.062Z,4.12
2022-12-01T02:47:33.406Z,4.12
2022-12-01T02:51:36.746Z,4.11
2022-12-01T02:55:36.455Z,4.13
2022-12-01T02:59:35.561Z,4.12
2022-12-01T03:04:05.633Z,4.12
2022-12-01T03:09:00.841Z,4.11
2022-12-01T03:13:22.193Z,4.10
2022-12-01T03:17:31.011Z,4.11
2022-12-01T03:21:42.343Z,4.11
2022-12-01T03:25:45.680Z,4.10
2022-12-01T03:29:49.200Z,4.10
2022-12-01T03:33:55.091Z,4.10
2022-12-01T03:38:00.279Z,4.11
2022-12-01T03:42:21.017Z,4.11
2022-12-01T03:46:50.626Z,4.09
2022-12-01T03:50:57.064Z,4.08
2022-12-01T03:55:09.315Z,4.07
2022-12-01T03:59:10.221Z,4.07
2022-12-01T04:03:18.278Z,4.06
2022-12-01T04:07:17.412Z,4.07
2022-12-01T04:11:34.866Z,4.08
2022-12-01T04:15:34.273Z,4.07
2022-12-01T04:19:33.607Z,4.05
2022-12-01T04:23:51.907Z,4.04
2022-12-01T04:27:50.930Z,4.02
2022-12-01T04:31:49.988Z,4.02
2022-12-01T04:35:59.542Z,4.04
2022-12-01T04:39:27.246Z,4.06
2022-12-01T04:43:26.134Z,4.07
2022-12-01T04:47:25.304Z,4.07
2022-12-01T04:51:24.545Z,4.05
2022-12-01T04:55:25.814Z,4.03
2022-12-01T04:59:25.389Z,4.02
2022-12-01T05:03:24.686Z,4.02
2022-12-01T05:07:26.136Z,4.01
2022-12-01T05:11:02.273Z,4.01
2022-12-01T05:15:01.453Z,4.01
2022-12-01T05:19:22.706Z,4.00
2022-12-01T05:23:21.972Z,4.00
2022-12-01T05:27:21.108Z,4.00
2022-12-01T05:31:20.851Z,4.00
2022-12-01T05:35:20.413Z,4.00
2022-12-01T05:39:19.726Z,4.00
2022-12-01T05:43:25.271Z,3.98
2022-12-01T05:47:27.573Z,3.96
2022-12-01T05:51:26.494Z,3.94
2022-12-01T05:55:25.701Z,3.91
2022-12-01T05:59:24.733Z,3.90
2022-12-01T06:03:23.794Z,3.88
2022-12-01T06:07:25.432Z,3.87
2022-12-01T06:11:24.438Z,3.84
2022-12-01T06:15:26.869Z,3.82
2022-12-01T06:19:02.028Z,3.79
2022-12-01T06:23:01.628Z,3.80
2022-12-01T06:27:00.859Z,3.81
2022-12-01T06:31:14.077Z,3.79
2022-12-01T06:35:13.136Z,3.78
2022-12-01T06:39:12.438Z,3.76
2022-12-01T06:43:12.495Z,3.75
2022-12-01T06:47:11.799Z,3.75
2022-12-01T06:51:11.234Z,3.72
2022-12-01T06:55:10.673Z,3.72
2022-12-01T06:59:10.495Z,3.73
2022-12-01T07:03:09.857Z,3.71
2022-12-01T07:07:08.904Z,3.70
2022-12-01T07:11:12.628Z,3.71
2022-12-01T07:15:11.934Z,3.73
2022-12-01T07:19:11.331Z,3.74
2022-12-01T07:23:10.468Z,3.74
2022-12-01T07:27:09.231Z,3.76
2022-12-01T07:31:09.967Z,3.78
2022-12-01T07:35:10.691Z,3.76
2022-12-01T07:39:10.286Z,3.75
2022-12-01T07:43:09.570Z,3.75
2022-12-01T07:47:08.668Z,3.75
2022-12-01T07:51:09.798Z,3.77
2022-12-01T07:55:09.003Z,3.77
2022-12-01T07:59:09.750Z,3.78
2022-12-01T08:03:09.201Z,3.79
2022-12-01T08:07:08.849Z,3.77
2022-12-01T08:11:13.831Z,3.76
2022-12-01T08:15:13.198Z,3.76
2022-12-01T08:19:12.031Z,3.78
2022-12-01T08:23:25.039Z,3.80
2022-12-01T08:27:38.294Z,3.84
2022-12-01T08:31:38.365Z,3.87
2022-12-01T08:35:52.245Z,3.92
2022-12-01T08:39:51.958Z,3.95
2022-12-01T08:43:59.637Z,3.96
2022-12-01T08:48:00.131Z,3.99
2022-12-01T08:51:59.271Z,4.02
2022-12-01T08:56:07.776Z,4.03
2022-12-01T09:00:21.164Z,4.04
2022-12-01T09:04:23.154Z,4.05
2022-12-01T09:08:41.536Z,4.07
2022-12-01T09:12:41.270Z,4.10
2022-12-01T09:16:42.909Z,4.11
2022-12-01T09:20:41.893Z,4.12
2022-12-01T09:24:40.901Z,4.15
2022-12-01T09:28:39.743Z,4.19
2022-12-01T09:32:38.908Z,4.20
2022-12-01T09:36:39.026Z,4.21
2022-12-01T09:40:41.465Z,4.24
2022-12-01T09:44:48.807Z,4.27
2022-12-01T09:48:50.571Z,4.29
2022-12-01T09:52:53.729Z,4.31
2022-12-01T09:56:55.586Z,4.33
2022-12-01T10:00:55.523Z,4.33
2022-12-01T10:04:59.454Z,4.33
2022-12-01T10:09:12.757Z,4.34
2022-12-01T10:13:26.494Z,4.33
2022-12-01T10:18:13.372Z,4.32
2022-12-01T10:22:39.848Z,4.33
2022-12-01T10:26:54.390Z,4.35
2022-12-01T10:31:03.144Z,4.34
2022-12-01T10:35:02.888Z,4.33
2022-12-01T10:39:39.226Z,4.30
2022-12-01T10:43:44.704Z,4.29
2022-12-01T10:48:10.845Z,4.29
2022-12-01T10:52:42.279Z,4.30
2022-12-01T10:56:47.911Z,4.32
2022-12-01T11:01:00.403Z,4.34
2022-12-01T11:05:04.831Z,4.36
2022-12-01T11:09:27.103Z,4.39
2022-12-01T11:13:33.909Z,4.41
2022-12-01T11:17:42.585Z,4.41
2022-12-01T11:21:51.085Z,4.40
2022-12-01T11:26:17.889Z,4.39
2022-12-01T11:30:30.647Z,4.35
2022-12-01T11:34:55.041Z,4.33
2022-12-01T11:42:29.713Z,4.31
2022-12-01T11:46:35.709Z,4.29
2022-12-01T11:50:25.791Z,4.31
2022-12-01T11:54:27.052Z,4.31
2022-12-01T11:58:26.543Z,4.34
2022-12-01T12:02:51.516Z,4.36
2022-12-01T12:06:59.520Z,4.37
2022-12-01T12:11:07.634Z,4.37
2022-12-01T12:15:35.500Z,4.37
2022-12-01T12:20:08.043Z,4.38
2022-12-01T12:24:38.510Z,4.35
2022-12-01T12:28:10.979Z,4.34
2022-12-01T12:32:37.937Z,4.31
2022-12-01T12:37:18.731Z,4.29
2022-12-01T12:40:23.696Z,4.27
2022-12-01T12:44:54.176Z,4.24
2022-12-01T12:48:24.429Z,4.23
2022-12-01T12:51:51.366Z,4.21
2022-12-01T12:56:00.145Z,4.21
2022-12-01T13:00:05.587Z,4.20
2022-12-01T13:04:36.226Z,4.18
2022-12-01T13:08:50.372Z,4.19
2022-12-01T13:13:00.904Z,4.19
2022-12-01T13:16:34.170Z,4.19
2022-12-01T13:20:08.048Z,4.19
2022-12-01T13:23:46.704Z,4.17
2022-12-01T13:27:24.568Z,4.13
2022-12-01T13:31:24.640Z,4.10
2022-12-01T13:35:27.003Z,4.06
2022-12-01T13:39:36.455Z,4.04
2022-12-01T13:43:38.169Z,4.02
2022-12-01T13:47:46.934Z,4.02
2022-12-01T13:52:23.493Z,4.00
2022-12-01T13:56:47.257Z,3.94
2022-12-01T14:00:46.509Z,3.89
2022-12-01T14:05:24.739Z,3.84
2022-12-01T14:09:35.888Z,3.79
2022-12-01T14:13:57.187Z,3.75
2022-12-01T14:18:21.152Z,3.69
2022-12-01T14:22:42.205Z,3.61
2022-12-01T14:26:46.167Z,3.53
2022-12-01T14:30:50.037Z,3.48
2022-12-01T14:34:53.885Z,3.44
2022-12-01T14:38:59.200Z,3.45
2022-12-01T14:43:05.825Z,3.45
2022-12-01T14:47:11.273Z,3.49
2022-12-01T14:51:20.171Z,3.54
2022-12-01T14:55:56.722Z,3.58
2022-12-01T15:00:17.951Z,3.61
2022-12-01T15:04:17.757Z,3.63
2022-12-01T15:12:42.546Z,3.65
2022-12-01T15:16:43.682Z,3.65
2022-12-01T15:20:47.698Z,3.66
2022-12-01T15:24:47.920Z,3.66
2022-12-01T15:28:47.460Z,3.66
2022-12-01T15:32:47.539Z,3.65
2022-12-01T15:36:48.422Z,3.65
2022-12-01T15:45:25.356Z,3.63
2022-12-01T15:49:30.510Z,3.65
2022-12-01T15:53:37.289Z,3.65
2022-12-01T15:57:37.266Z,3.65
2022-12-01T16:01:38.735Z,3.66
2022-12-01T16:05:37.997Z,3.68
2022-12-01T16:09:42.481Z,3.73
2022-12-01T16:14:00.403Z,3.78
2022-12-01T16:18:00.095Z,3.81
2022-12-01T16:22:25.593Z,3.84
2022-12-01T16:26:25.056Z,3.86
2022-12-01T16:30:39.725Z,3.88
2022-12-01T16:34:46.209Z,3.90
2022-12-01T16:38:45.296Z,3.90
2022-12-01T16:42:45.790Z,3.90
2022-12-01T16:46:46.912Z,3.92
2022-12-01T16:50:23.211Z,3.93
2022-12-01T16:54:22.989Z,3.95
2022-12-01T16:58:22.549Z,3.96
2022-12-01T17:02:35.757Z,3.98
2022-12-01T17:06:36.522Z,4.01
2022-12-01T17:10:35.868Z,4.02
2022-12-01T17:14:36.172Z,4.04
2022-12-01T17:18:38.434Z,4.06
2022-12-01T17:22:38.401Z,4.08
2022-12-01T17:26:37.538Z,4.10
2022-12-01T17:30:38.112Z,4.13
2022-12-01T17:34:37.550Z,4.14
2022-12-01T17:38:38.862Z,4.16
2022-12-01T17:42:38.267Z,4.16
2022-12-01T17:46:38.766Z,4.17
2022-12-01T17:50:38.423Z,4.19
2022-12-01T17:54:38.381Z,4.21
2022-12-01T17:58:38.072Z,4.23
2022-12-01T18:02:37.987Z,4.23
2022-12-01T18:06:37.416Z,4.22
2022-12-01T18:10:37.422Z,4.23
2022-12-01T18:14:38.028Z,4.23
2022-12-01T18:18:38.831Z,4.23
2022-12-01T18:22:52.304Z,4.25
2022-12-01T18:26:51.945Z,4.26
2022-12-01T18:30:50.949Z,4.26
2022-12-01T18:34:50.618Z,4.27
2022-12-01T18:38:52.638Z,4.27
2022-12-01T18:42:52.462Z,4.28
2022-12-01T18:46:53.267Z,4.28
2022-12-01T18:50:59.101Z,4.27
2022-12-01T18:54:58.722Z,4.26
2022-12-01T18:59:01.388Z,4.20
2022-12-01T19:03:00.671Z,4.08
2022-12-01T19:07:00.142Z,3.96
2022-12-01T19:11:02.362Z,3.87
2022-12-01T19:15:01.482Z,3.81
2022-12-01T19:19:01.549Z,3.80
2022-12-01T19:23:16.163Z,3.80
2022-12-01T19:27:15.641Z,3.83
2022-12-01T19:31:21.165Z,3.87
2022-12-01T19:35:20.410Z,3.87
2022-12-01T19:39:20.419Z,3.86
2022-12-01T19:47:40.261Z,3.83
2022-12-01T19:51:41.025Z,3.81
2022-12-01T19:55:40.539Z,3.83
2022-12-01T19:59:40.204Z,3.80
2022-12-01T20:03:41.207Z,3.76
2022-12-01T20:07:40.599Z,3.72
2022-12-01T20:11:39.645Z,3.70
2022-12-01T20:15:38.864Z,3.68
2022-12-01T20:19:38.823Z,3.67
2022-12-01T20:23:38.489Z,3.66
2022-12-01T20:27:38.142Z,3.65
2022-12-01T20:31:38.785Z,3.62
2022-12-01T20:35:38.477Z,3.62
2022-12-01T20:39:41.578Z,3.60
2022-12-01T20:43:41.451Z,3.60
2022-12-01T20:47:40.657Z,3.58
2022-12-01T20:51:40.851Z,3.57
2022-12-01T20:55:40.206Z,3.55
2022-12-01T20:59:39.569Z,3.54
2022-12-01T21:03:40.081Z,3.53
2022-12-01T21:07:39.483Z,3.51
2022-12-01T21:12:05.480Z,3.50
2022-12-01T21:16:13.637Z,3.48
2022-12-01T21:20:39.383Z,3.45
2022-12-01T21:24:43.560Z,3.44
2022-12-01T21:28:45.271Z,3.42
2022-12-01T21:32:45.894Z,3.41
2022-12-01T21:36:46.284Z,3.39
2022-12-01T21:40:46.969Z,3.38
2022-12-01T21:44:46.695Z,3.38
2022-12-01T21:48:49.761Z,3.36
2022-12-01T21:52:49.913Z,3.35
2022-12-01T21:56:49.949Z,3.34
2022-12-01T22:01:17.155Z,3.33
2022-12-01T22:06:01.009Z,3.32
2022-12-01T22:09:16.793Z,3.33
2022-12-01T22:13:15.595Z,3.32
2022-12-01T22:17:21.632Z,3.33
2022-12-01T22:21:23.916Z,3.34
2022-12-01T22:25:26.662Z,3.35
2022-12-01T22:29:34.352Z,3.36
2022-12-01T22:33:33.992Z,3.38
2022-12-01T22:37:59.324Z,3.42
2022-12-01T22:42:04.255Z,3.47
2022-12-01T22:46:22.419Z,3.51
2022-12-01T22:49:42.781Z,3.53
2022-12-01T22:53:44.251Z,3.57
2022-12-01T22:57:43.918Z,3.58
2022-12-01T23:01:55.572Z,3.60
2022-12-01T23:06:47.469Z,3.60
2022-12-01T23:10:47.093Z,3.59
2022-12-01T23:14:49.753Z,3.57
2022-12-01T23:18:49.303Z,3.57
2022-12-01T23:22:49.262Z,3.57
2022-12-01T23:26:49.068Z,3.56
2022-12-01T23:30:53.525Z,3.55
2022-12-01T23:34:58.397Z,3.53
2022-12-01T23:39:04.733Z,3.52
2022-12-01T23:43:25.083Z,3.51
2022-12-01T23:47:29.574Z,3.51
2022-12-01T23:51:33.542Z,3.51
2022-12-01T23:55:32.670Z,3.50
2022-12-01T23:59:32.544Z,3.50
